首页
METAR-TAF:

METAR-TAF

机场 :

Worland Municipal Airport

Worland, 怀俄明州, 美国

纬度: 43-57-57N, 经度: 107-57-03W, 海拔: 1288米

当前天气观测

该预报发布于1小时和7分钟前的07:53 UTC
风速3节,风向南转南东
温度 -1°C
湿度 86%
气压 1009 hPa
能見度: 16.1公里
少量云层高于12000英尺

METAR: KWRL 130753Z AUTO 16003KT 10SM FEW120 M01/M03 A2981 RMK AO2 SLP122 T10111028

时间: 02:00 (09:00 UTC)

预报

该预报发布于3小时和31分钟前的05:29 UTC
预报有效从13日的 06点(UTC)到 14日的 06点(UTC)
风速5节,风向多变
能見度: 10公里
多云层高于10000英尺
从 13日的 1000点(UTC)
风速6节,风向多变
能見度: 10公里
散云层高于5000英尺
阴天层高于10000英尺
从 13日的 1500点(UTC)
风速8节,风向西转西南
能見度: 10公里
散云层高于4000英尺
阴天层高于8000英尺
附近有阵雨
从 13日的 2000点(UTC)
风速4节,风向西北
能見度: 10公里
散云层高于5000英尺
多云层高于10000英尺

TAF: KWRL 130529Z 1306/1406 VRB05KT P6SM BKN100 FM131000 VRB06KT P6SM SCT050 OVC100 FM131500 24008KT P6SM VCSH SCT040 OVC080 FM132000 32004KT P6SM SCT050 BKN100

超过4000个机场的气象观测和天气预报(METAR&TAF报告)。

可查询的气象台以黄色和红色小点在地图上表示。

将鼠标移到小点上方,可查看气象台名称。

然后点击查看天气观测和预报。

如需切换地图:点击带黑十字的绿色按钮放大地图;点击带横线的绿色按钮缩小地图;或者点击绿色箭头查看邻近地区的地图。


METAR-TAF: